Time;durP1;ratioP1;P1;durP2;ratioP2;P2;SDS_P1;SDS_P2;PMS_P1;PMS_P2;Temp;Humidity;BMP_temperature;BMP_pressure;BME280_temperature;BME280_humidity;BME280_pressure;Samples;Min_cycle;Max_cycle;Signal;HPM_P1;HPM_P2
2023/12/07 00:00:20;;;;;;;8.73;7.32;;;4.80;84.30;;;;;;6278238;22;20248;-74
2023/12/07 00:02:47;;;;;;;10.75;7.85;;;4.80;84.40;;;;;;6278440;22;20166;-74
2023/12/07 00:05:15;;;;;;;9.48;7.55;;;4.90;84.30;;;;;;6278369;22;20193;-74
2023/12/07 00:07:42;;;;;;;9.85;7.10;;;4.90;84.40;;;;;;6278572;22;20206;-74
2023/12/07 00:10:10;;;;;;;10.18;7.65;;;4.90;84.20;;;;;;6277465;22;20536;-74
2023/12/07 00:12:37;;;;;;;12.57;7.50;;;4.90;84.10;;;;;;6278074;22;20233;-74
2023/12/07 00:15:05;;;;;;;10.73;7.82;;;4.90;84.00;;;;;;6278176;22;20193;-74
2023/12/07 00:17:32;;;;;;;9.85;7.00;;;4.90;83.90;;;;;;6278412;22;20188;-74
2023/12/07 00:19:59;;;;;;;13.18;8.77;;;4.90;84.00;;;;;;6277892;22;20169;-74
2023/12/07 00:22:28;;;;;;;10.73;8.05;;;4.80;83.90;;;;;;6277534;22;20200;-74
2023/12/07 00:24:55;;;;;;;10.85;7.68;;;4.80;83.70;;;;;;6278247;22;20170;-74
2023/12/07 00:27:22;;;;;;;10.32;7.55;;;4.80;83.80;;;;;;6278148;22;20169;-74
2023/12/07 00:29:49;;;;;;;13.45;8.80;;;4.80;83.70;;;;;;6277504;22;20640;-74
2023/12/07 00:32:17;;;;;;;10.95;7.90;;;4.80;84.10;;;;;;6277528;22;20173;-74
2023/12/07 00:34:44;;;;;;;9.88;7.30;;;4.80;84.20;;;;;;6278079;22;20162;-74
2023/12/07 00:37:11;;;;;;;10.18;7.88;;;4.80;84.10;;;;;;6277808;22;20197;-73
2023/12/07 00:39:41;;;;;;;10.98;7.95;;;4.70;83.90;;;;;;6278109;22;20168;-74
2023/12/07 00:42:09;;;;;;;12.48;8.30;;;4.70;84.00;;;;;;6277896;22;20156;-74
2023/12/07 00:44:42;;;;;;;11.32;7.78;;;4.70;83.90;;;;;;6277999;22;20221;-74
2023/12/07 00:47:09;;;;;;;11.40;8.18;;;4.80;84.00;;;;;;6277588;22;20196;-74
2023/12/07 00:49:38;;;;;;;14.93;8.45;;;4.80;83.90;;;;;;6277597;22;20631;-74
2023/12/07 00:52:06;;;;;;;11.93;8.57;;;4.80;83.70;;;;;;6277655;22;20192;-75
2023/12/07 00:54:33;;;;;;;12.35;8.18;;;4.70;83.50;;;;;;6277928;22;20172;-74
2023/12/07 00:57:01;;;;;;;10.30;8.52;;;4.80;83.60;;;;;;6277894;22;20596;-74
2023/12/07 00:59:33;;;;;;;10.20;8.30;;;4.70;83.40;;;;;;6277852;22;20193;-73
2023/12/07 01:02:01;;;;;;;10.23;8.10;;;4.80;83.30;;;;;;6276815;22;20172;-74
2023/12/07 01:04:28;;;;;;;10.73;7.85;;;4.80;83.10;;;;;;6277891;22;20173;-74
2023/12/07 01:06:55;;;;;;;12.38;9.45;;;4.80;83.00;;;;;;6277374;22;20171;-73
2023/12/07 01:09:22;;;;;;;12.25;7.40;;;4.70;82.70;;;;;;6278091;22;20249;-74
2023/12/07 01:11:50;;;;;;;10.25;7.90;;;4.70;82.70;;;;;;6277964;22;20207;-74
2023/12/07 01:14:18;;;;;;;9.50;7.40;;;4.70;82.70;;;;;;6277819;22;20165;-74
2023/12/07 01:16:46;;;;;;;12.80;8.15;;;4.70;82.70;;;;;;6277653;22;20267;-74
2023/12/07 01:19:14;;;;;;;9.05;7.43;;;4.70;82.70;;;;;;6277289;22;20173;-74
2023/12/07 01:21:41;;;;;;;15.85;8.65;;;4.70;82.70;;;;;;6277194;22;20166;-74
2023/12/07 01:24:08;;;;;;;11.63;7.38;;;4.70;82.70;;;;;;6277623;22;20162;-74
2023/12/07 01:26:35;;;;;;;13.85;8.80;;;4.70;82.60;;;;;;6277688;22;20172;-74
2023/12/07 01:29:02;;;;;;;11.82;8.88;;;4.70;82.70;;;;;;6277216;22;20600;-74
2023/12/07 01:31:31;;;;;;;13.75;8.40;;;4.70;82.70;;;;;;6277448;22;20161;-74
2023/12/07 01:33:57;;;;;;;11.30;8.00;;;4.60;82.50;;;;;;6277328;22;20260;-74
2023/12/07 01:36:24;;;;;;;12.57;8.57;;;4.60;82.20;;;;;;6277350;22;20181;-74
2023/12/07 01:38:52;;;;;;;10.73;7.95;;;4.60;82.10;;;;;;6277361;22;20172;-73
2023/12/07 01:41:19;;;;;;;12.15;7.75;;;4.60;81.90;;;;;;6276657;22;20169;-74
2023/12/07 01:43:47;;;;;;;11.00;7.78;;;4.60;81.60;;;;;;6277234;22;20179;-74
2023/12/07 01:46:15;;;;;;;10.32;7.45;;;4.60;81.70;;;;;;6276728;22;20197;-74
2023/12/07 01:48:44;;;;;;;9.32;6.80;;;4.60;81.70;;;;;;6277585;22;20197;-74
2023/12/07 01:51:12;;;;;;;11.73;8.70;;;4.60;82.00;;;;;;6277247;22;20253;-74
2023/12/07 01:53:40;;;;;;;9.95;7.57;;;4.60;82.00;;;;;;6277380;22;20260;-74
2023/12/07 01:56:09;;;;;;;11.48;8.02;;;4.50;81.70;;;;;;6276802;22;20662;-73
2023/12/07 01:58:36;;;;;;;8.70;7.03;;;4.50;81.50;;;;;;6277376;22;20236;-74
2023/12/07 02:01:05;;;;;;;10.23;8.63;;;4.50;81.50;;;;;;6277103;22;20215;-74
2023/12/07 02:03:33;;;;;;;10.35;7.45;;;4.40;82.00;;;;;;6277311;22;20165;-73
2023/12/07 02:06:02;;;;;;;11.90;7.47;;;4.40;81.20;;;;;;6277333;22;20520;-74
2023/12/07 02:08:29;;;;;;;11.48;7.93;;;4.40;81.00;;;;;;6277339;22;20172;-74
2023/12/07 02:10:56;;;;;;;11.07;8.13;;;4.40;81.00;;;;;;6276872;22;20201;-74
2023/12/07 02:13:23;;;;;;;10.10;7.13;;;4.30;80.70;;;;;;6276855;22;20165;-74
2023/12/07 02:15:51;;;;;;;8.48;6.20;;;4.30;80.60;;;;;;6277149;22;20197;-74
2023/12/07 02:18:26;;;;;;;9.98;7.18;;;4.30;80.50;;;;;;6276674;22;20621;-74
2023/12/07 02:21:02;;;;;;;10.75;7.88;;;4.20;80.30;;;;;;6277050;22;20153;-74
2023/12/07 02:23:33;;;;;;;9.88;6.45;;;4.20;80.50;;;;;;6277323;22;20161;-74
2023/12/07 02:26:04;;;;;;;11.32;7.88;;;4.10;80.30;;;;;;6276951;22;20200;-74
2023/12/07 02:28:32;;;;;;;13.65;7.47;;;4.10;80.40;;;;;;6276802;22;20200;-74
2023/12/07 02:30:59;;;;;;;13.23;8.20;;;4.10;80.50;;;;;;6276562;22;20200;-73
2023/12/07 02:33:26;;;;;;;13.65;8.27;;;4.10;80.80;;;;;;6277210;22;20203;-74
2023/12/07 02:35:53;;;;;;;9.80;7.88;;;4.10;81.00;;;;;;6279173;22;20166;-74
2023/12/07 02:38:26;;;;;;;11.65;8.00;;;4.10;81.30;;;;;;6279300;22;20535;-74
2023/12/07 02:40:55;;;;;;;9.30;6.82;;;4.10;81.40;;;;;;6279074;22;20212;-74
2023/12/07 02:43:23;;;;;;;11.38;7.65;;;4.10;81.40;;;;;;6278685;22;20658;-73
2023/12/07 02:45:51;;;;;;;9.65;7.13;;;4.10;81.20;;;;;;6278806;22;20189;-73
2023/12/07 02:48:18;;;;;;;11.63;7.93;;;4.10;81.10;;;;;;6278803;22;20197;-74
2023/12/07 02:50:45;;;;;;;11.35;7.10;;;4.10;80.60;;;;;;6278734;22;20193;-73
2023/12/07 02:53:12;;;;;;;10.50;6.90;;;4.10;80.30;;;;;;6278658;22;20193;-74
2023/12/07 02:55:39;;;;;;;10.82;8.35;;;4.10;80.40;;;;;;6279009;22;20173;-74
2023/12/07 02:58:06;;;;;;;11.73;7.90;;;4.20;80.50;;;;;;6279030;22;20244;-73
2023/12/07 03:00:33;;;;;;;10.25;7.13;;;4.10;80.30;;;;;;6278744;22;20240;-74
2023/12/07 03:03:01;;;;;;;12.13;8.30;;;4.20;80.40;;;;;;6279082;22;20199;-74
2023/12/07 03:05:28;;;;;;;12.48;8.23;;;4.20;80.20;;;;;;6279040;22;20197;-74
2023/12/07 03:07:55;;;;;;;10.57;7.90;;;4.20;80.40;;;;;;6279231;22;20201;-73
2023/12/07 03:10:22;;;;;;;11.65;7.82;;;4.10;79.80;;;;;;6278884;22;20173;-74
2023/12/07 03:12:49;;;;;;;12.25;8.05;;;4.10;79.20;;;;;;6278314;22;20240;-74
2023/12/07 03:15:16;;;;;;;14.05;8.00;;;4.00;78.20;;;;;;6278506;22;20193;-73
2023/12/07 03:17:43;;;;;;;13.20;8.07;;;3.90;79.20;;;;;;6278754;22;20240;-73
2023/12/07 03:20:12;;;;;;;8.60;6.38;;;3.90;79.80;;;;;;6278754;22;20165;-73
2023/12/07 03:22:39;;;;;;;13.05;7.18;;;4.00;79.80;;;;;;6278543;22;20225;-73
2023/12/07 03:25:06;;;;;;;12.50;8.13;;;3.90;79.60;;;;;;6278844;22;20219;-74
2023/12/07 03:27:33;;;;;;;8.48;6.65;;;3.90;80.00;;;;;;6278770;22;20201;-74
2023/12/07 03:30:00;;;;;;;10.48;7.63;;;4.00;80.50;;;;;;6278478;22;20689;-74
2023/12/07 03:32:27;;;;;;;8.35;6.53;;;3.90;80.00;;;;;;6278540;22;20196;-74
2023/12/07 03:34:54;;;;;;;10.25;6.85;;;3.90;80.00;;;;;;6278764;22;20161;-74
2023/12/07 03:37:22;;;;;;;12.38;7.75;;;3.90;80.30;;;;;;6278574;22;20300;-74
2023/12/07 03:39:49;;;;;;;9.25;6.50;;;4.00;79.70;;;;;;6278190;22;20241;-73
2023/12/07 03:42:16;;;;;;;8.65;6.82;;;3.90;79.90;;;;;;6278577;22;20192;-73
2023/12/07 03:44:43;;;;;;;11.52;6.75;;;3.80;80.90;;;;;;6278338;22;20644;-73
2023/12/07 03:47:10;;;;;;;16.50;8.00;;;3.80;81.40;;;;;;6278708;22;20177;-74
2023/12/07 03:49:38;;;;;;;11.25;8.27;;;3.80;81.70;;;;;;6278552;22;20200;-74
2023/12/07 03:52:06;;;;;;;11.38;7.53;;;3.80;82.00;;;;;;6278236;22;20161;-73
2023/12/07 03:54:35;;;;;;;10.30;7.90;;;3.80;81.80;;;;;;6278870;22;20165;-74
2023/12/07 03:57:02;;;;;;;9.02;7.25;;;3.80;82.10;;;;;;6277979;22;20659;-73
2023/12/07 03:59:29;;;;;;;12.00;8.80;;;3.90;82.30;;;;;;6278620;22;20204;-74
2023/12/07 04:01:56;;;;;;;12.45;7.93;;;3.90;81.90;;;;;;6278467;22;20197;-74
2023/12/07 04:04:23;;;;;;;12.13;8.48;;;3.80;81.80;;;;;;6278109;22;20698;-74
2023/12/07 04:06:50;;;;;;;12.45;9.00;;;3.90;82.00;;;;;;6278075;22;20608;-74
2023/12/07 04:09:17;;;;;;;12.20;8.82;;;3.80;81.70;;;;;;6278001;22;20601;-73
2023/12/07 04:11:46;;;;;;;11.20;8.88;;;3.80;81.70;;;;;;6278441;22;20192;-74
2023/12/07 04:14:12;;;;;;;11.63;8.10;;;3.80;81.90;;;;;;6277944;22;20166;-74
2023/12/07 04:16:39;;;;;;;12.07;7.43;;;3.80;82.00;;;;;;6277891;22;20220;-74
2023/12/07 04:19:06;;;;;;;14.27;8.23;;;3.90;81.80;;;;;;6277743;22;20240;-74
2023/12/07 04:21:34;;;;;;;13.57;9.27;;;3.80;81.30;;;;;;6278302;22;20201;-74
2023/12/07 04:24:01;;;;;;;11.20;7.97;;;3.80;81.50;;;;;;6277926;22;20631;-74
2023/12/07 04:26:28;;;;;;;9.98;7.53;;;3.80;81.60;;;;;;6278214;22;20197;-74
2023/12/07 04:28:56;;;;;;;13.32;8.65;;;3.80;81.90;;;;;;6277853;22;20169;-73
2023/12/07 04:31:23;;;;;;;11.65;8.38;;;3.80;82.10;;;;;;6278159;22;20546;-74
2023/12/07 04:33:51;;;;;;;17.73;10.70;;;3.80;82.10;;;;;;6278158;22;20166;-74
2023/12/07 04:36:17;;;;;;;16.58;10.18;;;3.80;81.50;;;;;;6278018;22;20172;-74
2023/12/07 04:38:44;;;;;;;20.35;12.55;;;3.70;81.30;;;;;;6277901;22;20256;-74
2023/12/07 04:41:11;;;;;;;18.25;11.18;;;3.70;81.50;;;;;;6277669;22;20660;-73
2023/12/07 04:43:38;;;;;;;19.33;11.60;;;3.80;80.90;;;;;;6278110;22;20172;-73
2023/12/07 04:46:07;;;;;;;21.38;12.30;;;3.70;81.00;;;;;;6278387;22;20564;-74
2023/12/07 04:48:34;;;;;;;21.77;12.43;;;3.60;80.80;;;;;;6278115;22;20248;-74
2023/12/07 04:51:01;;;;;;;18.55;11.02;;;3.50;80.90;;;;;;6277635;22;20632;-73
2023/12/07 04:53:27;;;;;;;12.73;8.23;;;3.50;81.50;;;;;;6277994;22;20172;-74
2023/12/07 04:55:55;;;;;;;14.90;8.93;;;3.50;82.00;;;;;;6277195;22;20197;-74
2023/12/07 04:58:21;;;;;;;12.18;8.25;;;3.50;82.30;;;;;;6277302;22;20212;-74
2023/12/07 05:00:48;;;;;;;11.48;8.35;;;3.50;82.00;;;;;;6277926;22;20272;-73
2023/12/07 05:03:17;;;;;;;13.90;9.13;;;3.50;81.80;;;;;;6277366;22;20245;-73
2023/12/07 05:05:44;;;;;;;11.65;9.10;;;3.50;81.50;;;;;;6277817;22;20184;-73
2023/12/07 05:08:11;;;;;;;12.27;8.50;;;3.50;80.90;;;;;;6277394;22;20632;-74
2023/12/07 05:10:38;;;;;;;10.93;8.18;;;3.40;80.70;;;;;;6278010;22;20204;-73
2023/12/07 05:13:04;;;;;;;15.05;8.32;;;3.40;81.00;;;;;;6277389;22;20169;-73
2023/12/07 05:15:31;;;;;;;12.50;7.78;;;3.30;81.00;;;;;;6277744;22;20193;-74
2023/12/07 05:17:58;;;;;;;10.90;7.50;;;3.30;81.10;;;;;;6277626;22;20260;-74
2023/12/07 05:20:28;;;;;;;11.13;7.55;;;3.20;81.10;;;;;;6277750;22;20201;-73
2023/12/07 05:22:55;;;;;;;13.20;10.10;;;3.20;81.40;;;;;;6277496;22;20165;-74
2023/12/07 05:25:22;;;;;;;19.75;12.32;;;3.20;82.80;;;;;;6277550;22;20173;-74
2023/12/07 05:27:49;;;;;;;14.52;11.38;;;3.20;82.50;;;;;;6277582;22;20228;-73
2023/12/07 05:30:16;;;;;;;11.13;7.40;;;3.20;82.60;;;;;;6277578;22;20166;-74
2023/12/07 05:32:44;;;;;;;12.93;8.63;;;3.20;82.60;;;;;;6277092;22;20161;-74
2023/12/07 05:35:13;;;;;;;11.30;8.73;;;3.10;81.30;;;;;;6277555;22;20267;-75
2023/12/07 05:37:41;;;;;;;15.20;9.32;;;3.10;81.40;;;;;;6277445;22;20484;-74
2023/12/07 05:40:12;;;;;;;13.10;9.65;;;3.00;81.50;;;;;;6275381;22;20240;-74
2023/12/07 05:42:39;;;;;;;13.25;9.00;;;3.00;81.60;;;;;;6276919;22;20153;-74
2023/12/07 05:45:07;;;;;;;17.52;11.05;;;3.00;82.00;;;;;;6276262;22;20305;-73
2023/12/07 05:47:34;;;;;;;14.20;9.18;;;3.00;82.10;;;;;;6276758;22;20165;-74
2023/12/07 05:50:03;;;;;;;12.75;8.32;;;2.90;82.00;;;;;;6276621;22;20189;-74
2023/12/07 05:52:30;;;;;;;13.55;9.18;;;3.00;82.30;;;;;;6276692;22;20165;-73
2023/12/07 05:54:58;;;;;;;16.52;10.40;;;2.90;82.30;;;;;;6276839;22;20520;-74
2023/12/07 05:57:25;;;;;;;16.33;10.10;;;2.90;82.60;;;;;;6276650;22;20340;-73
2023/12/07 05:59:52;;;;;;;16.52;12.20;;;2.90;82.80;;;;;;6276599;22;20200;-74
2023/12/07 06:02:19;;;;;;;15.23;10.50;;;2.90;83.00;;;;;;6274192;22;20202;-75
2023/12/07 06:04:45;;;;;;;16.90;9.70;;;2.90;83.10;;;;;;6275482;22;20244;-73
2023/12/07 06:07:13;;;;;;;10.95;8.77;;;2.90;82.60;;;;;;6276273;22;20203;-74
2023/12/07 06:09:41;;;;;;;13.38;8.45;;;2.80;82.10;;;;;;6276099;22;20236;-74
2023/12/07 06:12:09;;;;;;;12.85;8.20;;;2.80;81.70;;;;;;6276146;22;20196;-74
2023/12/07 06:14:36;;;;;;;11.00;7.60;;;2.70;81.10;;;;;;6276149;22;20166;-73
2023/12/07 06:17:03;;;;;;;12.85;9.20;;;2.70;80.60;;;;;;6275326;22;20207;-74
2023/12/07 06:19:30;;;;;;;14.57;9.05;;;2.60;80.70;;;;;;6274266;22;20457;-75
2023/12/07 06:21:58;;;;;;;10.70;7.20;;;2.60;81.10;;;;;;6276168;22;20208;-73
2023/12/07 06:24:25;;;;;;;8.48;6.15;;;2.50;80.80;;;;;;6276143;22;20612;-73
2023/12/07 06:26:52;;;;;;;9.30;6.57;;;2.50;80.30;;;;;;6275803;22;20253;-75
2023/12/07 06:29:20;;;;;;;8.02;4.97;;;2.40;79.70;;;;;;6276138;22;20630;-74
2023/12/07 06:31:47;;;;;;;12.45;8.68;;;2.30;79.30;;;;;;6272883;22;20544;-73
2023/12/07 06:34:14;;;;;;;13.18;7.75;;;2.30;79.20;;;;;;6275412;22;20165;-73
2023/12/07 06:36:41;;;;;;;11.68;7.80;;;2.20;79.20;;;;;;6275305;22;20240;-73
2023/12/07 06:39:08;;;;;;;9.18;6.45;;;2.20;78.70;;;;;;6275213;22;20302;-74
2023/12/07 06:41:35;;;;;;;14.02;8.68;;;2.10;78.50;;;;;;6276018;22;20552;-74
2023/12/07 06:44:02;;;;;;;17.33;8.93;;;2.00;77.90;;;;;;6275756;22;20255;-74
2023/12/07 06:46:30;;;;;;;22.40;12.32;;;2.00;77.50;;;;;;6276074;22;20608;-74
2023/12/07 06:48:57;;;;;;;18.73;10.13;;;2.00;77.80;;;;;;6276013;22;20205;-74
2023/12/07 06:51:24;;;;;;;19.92;9.30;;;2.00;78.60;;;;;;6275880;22;20165;-74
2023/12/07 06:53:51;;;;;;;14.38;8.98;;;1.90;79.10;;;;;;6275745;22;20197;-74
2023/12/07 06:56:18;;;;;;;15.20;9.13;;;1.80;79.70;;;;;;6275638;22;20169;-73
2023/12/07 06:58:44;;;;;;;15.93;10.15;;;1.80;80.80;;;;;;6275774;22;20276;-73
2023/12/07 07:01:12;;;;;;;14.73;9.68;;;1.80;81.90;;;;;;6275638;22;20166;-73
2023/12/07 07:03:40;;;;;;;19.63;11.95;;;1.80;82.70;;;;;;6275891;22;20459;-75
2023/12/07 07:06:08;;;;;;;14.57;9.40;;;1.80;81.90;;;;;;6275965;22;20166;-74
2023/12/07 07:08:35;;;;;;;13.73;9.10;;;1.80;80.30;;;;;;6276013;22;20219;-73
2023/12/07 07:11:03;;;;;;;24.38;12.65;;;1.80;79.80;;;;;;6275318;22;20654;-73
2023/12/07 07:13:30;;;;;;;14.82;9.27;;;1.70;80.00;;;;;;6271274;22;20173;-73
2023/12/07 07:15:57;;;;;;;16.10;10.25;;;1.70;80.50;;;;;;6274239;22;20215;-73
2023/12/07 07:18:25;;;;;;;18.95;9.30;;;1.70;80.90;;;;;;6275012;22;20277;-73
2023/12/07 07:20:53;;;;;;;22.45;12.18;;;1.70;80.80;;;;;;6277085;22;20257;-73
2023/12/07 07:23:20;;;;;;;13.18;9.20;;;1.80;81.50;;;;;;6276337;22;20252;-74
2023/12/07 07:25:47;;;;;;;11.80;9.65;;;1.80;82.50;;;;;;6277189;22;20252;-73
2023/12/07 07:28:14;;;;;;;16.33;11.50;;;1.90;82.90;;;;;;6275171;22;20203;-73
2023/12/07 07:30:41;;;;;;;13.35;9.73;;;2.00;83.60;;;;;;6275401;22;20609;-73
2023/12/07 07:33:08;;;;;;;17.25;11.57;;;2.10;83.00;;;;;;6277951;22;20308;-73
2023/12/07 07:35:34;;;;;;;12.88;9.38;;;2.20;82.60;;;;;;6278694;22;20244;-73
2023/12/07 07:38:03;;;;;;;16.63;9.60;;;2.30;82.10;;;;;;6278364;22;20182;-73
2023/12/07 07:40:29;;;;;;;17.08;10.73;;;2.30;80.50;;;;;;6277523;22;20165;-73
2023/12/07 07:42:56;;;;;;;21.10;13.02;;;2.30;79.00;;;;;;6278364;22;20240;-73
2023/12/07 07:45:24;;;;;;;33.20;17.98;;;2.40;78.70;;;;;;6278384;22;20243;-73
2023/12/07 07:47:51;;;;;;;27.83;16.60;;;2.50;78.90;;;;;;6278464;22;20253;-73
2023/12/07 07:50:18;;;;;;;33.70;18.50;;;2.50;78.90;;;;;;6278423;22;20197;-73
2023/12/07 07:52:45;;;;;;;35.20;19.05;;;2.60;79.20;;;;;;6278226;22;20479;-73
2023/12/07 07:55:13;;;;;;;20.02;14.07;;;2.70;79.80;;;;;;6278359;22;20476;-73
2023/12/07 07:57:40;;;;;;;20.90;12.10;;;2.80;80.10;;;;;;6277833;22;20173;-73
2023/12/07 08:00:08;;;;;;;24.05;12.43;;;2.80;79.50;;;;;;6278435;22;20188;-73
2023/12/07 08:02:36;;;;;;;25.98;16.73;;;2.80;79.10;;;;;;6277828;22;20241;-73
2023/12/07 08:05:03;;;;;;;21.63;13.18;;;2.80;77.50;;;;;;6277788;22;20169;-73
2023/12/07 08:07:30;;;;;;;21.67;13.45;;;2.80;76.00;;;;;;6277786;22;20188;-73
2023/12/07 08:09:56;;;;;;;23.98;14.05;;;2.70;75.60;;;;;;6278178;22;20244;-74
2023/12/07 08:12:25;;;;;;;16.42;12.23;;;2.60;73.50;;;;;;6278097;22;20192;-73
2023/12/07 08:14:52;;;;;;;19.20;12.77;;;2.60;71.70;;;;;;6278100;22;20165;-73
2023/12/07 08:17:19;;;;;;;14.50;10.57;;;2.60;70.30;;;;;;6278092;22;20173;-73
2023/12/07 08:19:46;;;;;;;11.43;8.27;;;2.50;68.70;;;;;;6277884;22;20242;-73
2023/12/07 08:22:13;;;;;;;11.30;7.93;;;2.30;67.60;;;;;;6278364;22;20184;-73
2023/12/07 08:24:40;;;;;;;15.75;10.20;;;2.30;66.80;;;;;;6277958;22;20212;-74
2023/12/07 08:27:07;;;;;;;13.38;9.05;;;2.20;67.10;;;;;;6278238;22;20184;-73
2023/12/07 08:29:36;;;;;;;13.35;10.13;;;2.10;68.70;;;;;;6277517;22;20256;-73
2023/12/07 08:32:03;;;;;;;10.60;9.32;;;2.10;70.60;;;;;;6277500;22;20165;-73
2023/12/07 08:34:31;;;;;;;13.93;9.80;;;2.10;72.70;;;;;;6277932;22;20199;-74
2023/12/07 08:36:58;;;;;;;11.85;9.25;;;2.20;74.00;;;;;;6277539;22;20165;-74
2023/12/07 08:39:26;;;;;;;12.88;8.80;;;2.60;74.50;;;;;;6277819;22;20272;-73
2023/12/07 08:41:52;;;;;;;13.73;9.38;;;3.00;74.40;;;;;;6277845;22;20166;-73
2023/12/07 08:44:19;;;;;;;13.77;9.35;;;3.40;73.30;;;;;;6277874;22;20579;-73
2023/12/07 08:46:48;;;;;;;10.50;7.85;;;3.90;73.20;;;;;;6277787;22;20228;-73
2023/12/07 08:49:14;;;;;;;13.40;8.38;;;4.30;72.00;;;;;;6277265;22;20170;-74
2023/12/07 08:51:41;;;;;;;11.77;9.05;;;4.60;71.30;;;;;;6277785;22;20269;-73
2023/12/07 08:54:08;;;;;;;15.27;10.27;;;5.00;71.80;;;;;;6277368;22;20165;-73
2023/12/07 08:56:35;;;;;;;13.35;10.35;;;5.40;69.00;;;;;;6277315;22;20212;-73
2023/12/07 08:59:03;;;;;;;12.20;9.93;;;5.70;67.70;;;;;;6277553;22;20269;-73
2023/12/07 09:01:32;;;;;;;13.90;11.60;;;6.10;65.00;;;;;;6277154;22;20166;-73
2023/12/07 09:04:01;;;;;;;14.52;11.68;;;6.40;63.80;;;;;;6277154;22;20195;-73
2023/12/07 09:06:28;;;;;;;13.15;11.48;;;6.60;63.20;;;;;;6277212;22;20166;-74
2023/12/07 09:08:55;;;;;;;17.15;12.20;;;6.80;62.60;;;;;;6277310;22;20632;-73
2023/12/07 09:11:23;;;;;;;12.68;10.57;;;7.10;62.90;;;;;;6277932;22;20462;-74
2023/12/07 09:13:50;;;;;;;10.95;9.18;;;7.30;61.20;;;;;;6277114;22;20244;-74
2023/12/07 09:16:17;;;;;;;11.63;8.35;;;7.60;60.30;;;;;;6277472;22;20172;-73
2023/12/07 09:18:46;;;;;;;11.80;9.13;;;7.80;59.10;;;;;;6276950;22;20185;-74
2023/12/07 09:21:14;;;;;;;10.65;8.95;;;8.10;58.40;;;;;;6277346;22;20166;-74
2023/12/07 09:23:41;;;;;;;10.25;8.68;;;8.40;57.10;;;;;;6277400;22;20204;-74
2023/12/07 09:26:08;;;;;;;7.80;7.00;;;8.60;56.40;;;;;;6277511;22;20193;-74
2023/12/07 09:28:35;;;;;;;9.45;8.25;;;8.80;55.70;;;;;;6277397;22;20174;-74
2023/12/07 09:31:02;;;;;;;12.55;9.82;;;9.10;55.50;;;;;;6277355;22;20189;-74
2023/12/07 09:33:29;;;;;;;10.23;8.60;;;9.30;54.70;;;;;;6276978;22;20600;-74
2023/12/07 09:35:56;;;;;;;8.77;7.63;;;9.50;54.30;;;;;;6277329;22;20248;-74
2023/12/07 09:38:24;;;;;;;10.98;8.45;;;9.80;51.90;;;;;;6277418;22;20220;-74
2023/12/07 09:40:54;;;;;;;8.98;7.32;;;10.00;50.10;;;;;;6277197;22;20542;-74
2023/12/07 09:43:21;;;;;;;9.30;7.68;;;10.20;47.60;;;;;;6277131;22;20173;-74
2023/12/07 09:45:49;;;;;;;7.93;7.05;;;10.40;48.60;;;;;;6277537;22;20213;-74
2023/12/07 09:48:18;;;;;;;9.02;7.90;;;10.60;48.70;;;;;;6276784;22;20240;-74
2023/12/07 09:50:45;;;;;;;9.77;8.30;;;10.90;48.00;;;;;;6277134;22;20264;-74
2023/12/07 09:53:12;;;;;;;9.48;6.57;;;11.20;46.50;;;;;;6277050;22;20173;-75
2023/12/07 09:55:41;;;;;;;11.43;7.45;;;11.40;46.70;;;;;;6277117;22;20499;-74
2023/12/07 09:58:08;;;;;;;10.50;7.63;;;11.60;46.90;;;;;;6276668;22;20165;-74
2023/12/07 10:00:37;;;;;;;10.30;7.60;;;11.90;46.60;;;;;;6277231;22;20530;-74
2023/12/07 10:03:20;;;;;;;9.37;8.37;;;12.20;44.60;;;;;;6276687;22;20479;-74
2023/12/07 10:05:58;;;;;;;10.63;7.73;;;12.30;43.70;;;;;;6276860;22;20930;-74
2023/12/07 10:08:29;;;;;;;9.87;7.40;;;12.30;43.70;;;;;;6276664;22;20402;-74
2023/12/07 10:11:08;;;;;;;9.40;7.30;;;12.50;44.00;;;;;;6277207;22;20765;-74
2023/12/07 10:13:36;;;;;;;10.07;7.63;;;12.70;43.90;;;;;;6277333;22;20421;-75
2023/12/07 10:16:11;;;;;;;14.03;8.70;;;12.90;42.70;;;;;;6277057;22;20394;-74
2023/12/07 10:18:40;;;;;;;10.77;8.47;;;13.10;41.60;;;;;;6277110;22;20419;-74
2023/12/07 10:21:07;;;;;;;8.13;6.30;;;13.00;41.80;;;;;;6276571;22;20392;-74
2023/12/07 10:23:34;;;;;;;8.10;6.80;;;13.10;42.50;;;;;;6276960;22;20392;-74
2023/12/07 10:26:02;;;;;;;9.00;7.30;;;13.40;41.90;;;;;;6276955;22;20467;-74
2023/12/07 10:28:31;;;;;;;8.93;7.27;;;13.50;40.90;;;;;;6276821;22;20392;-74
2023/12/07 10:30:58;;;;;;;9.87;7.23;;;13.60;40.10;;;;;;6276581;22;20479;-74
2023/12/07 10:33:27;;;;;;;8.40;7.07;;;13.70;39.90;;;;;;6276980;22;20395;-74
2023/12/07 10:35:54;;;;;;;9.90;7.23;;;13.90;40.20;;;;;;6276536;22;20948;-74
2023/12/07 10:38:21;;;;;;;10.33;7.00;;;14.10;40.50;;;;;;6276721;22;20470;-74
2023/12/07 10:40:50;;;;;;;9.13;7.83;;;14.30;39.40;;;;;;6276941;22;20393;-74
2023/12/07 10:43:20;;;;;;;24.10;11.57;;;14.50;39.80;;;;;;6276870;22;20393;-74
2023/12/07 10:45:48;;;;;;;13.03;8.10;;;14.60;39.40;;;;;;6276401;22;20423;-74
2023/12/07 10:48:15;;;;;;;7.77;6.73;;;14.70;38.80;;;;;;6276785;22;20391;-74
2023/12/07 10:50:46;;;;;;;8.23;7.07;;;14.90;38.60;;;;;;6273889;22;20442;-74
2023/12/07 10:53:20;;;;;;;8.40;6.20;;;14.90;37.40;;;;;;6275810;22;20763;-74
2023/12/07 10:55:53;;;;;;;7.80;4.93;;;14.90;36.20;;;;;;6278317;22;20761;-74
2023/12/07 10:58:22;;;;;;;8.33;5.73;;;14.90;34.50;;;;;;6278337;22;20380;-74
2023/12/07 11:00:51;;;;;;;6.17;4.70;;;15.00;33.30;;;;;;6278472;22;20422;-74
2023/12/07 11:03:18;;;;;;;8.23;6.00;;;14.90;35.20;;;;;;6278251;22;20480;-74
2023/12/07 11:05:46;;;;;;;8.10;5.90;;;14.90;34.90;;;;;;6278679;22;20442;-74
2023/12/07 11:08:21;;;;;;;6.80;5.40;;;15.00;34.70;;;;;;6278864;22;20392;-74
2023/12/07 11:10:59;;;;;;;7.77;6.13;;;15.20;35.50;;;;;;6278284;22;20418;-74
2023/12/07 11:13:30;;;;;;;8.60;6.57;;;15.10;34.20;;;;;;6278113;22;20394;-74
2023/12/07 11:15:59;;;;;;;9.87;7.77;;;15.20;34.40;;;;;;6278692;22;20420;-74
2023/12/07 11:18:26;;;;;;;8.93;7.33;;;15.10;33.50;;;;;;6278526;22;20426;-74
2023/12/07 11:20:55;;;;;;;11.70;8.80;;;15.00;33.50;;;;;;6278756;22;20398;-74
2023/12/07 11:23:22;;;;;;;6.20;5.60;;;14.80;33.70;;;;;;6278437;22;20442;-74
2023/12/07 11:25:50;;;;;;;10.87;6.57;;;14.90;33.60;;;;;;6278492;22;20415;-74
2023/12/07 11:28:17;;;;;;;9.63;7.40;;;15.10;32.90;;;;;;6278436;22;20398;-74
2023/12/07 11:30:46;;;;;;;7.70;6.30;;;15.20;32.30;;;;;;6278373;22;20415;-74
2023/12/07 11:33:16;;;;;;;7.63;5.60;;;15.20;31.10;;;;;;6278230;22;20904;-74
2023/12/07 11:36:05;;;;;;;8.00;4.90;;;15.10;30.50;;;;;;6278006;22;20415;-74
2023/12/07 11:38:31;;;;;;;6.47;4.23;;;15.10;30.00;;;;;;6277832;22;20392;-74
2023/12/07 11:40:58;;;;;;;6.87;4.63;;;15.10;30.80;;;;;;6278256;22;20471;-74
2023/12/07 11:43:39;;;;;;;7.83;4.93;;;15.20;30.90;;;;;;6274715;22;20423;-74
2023/12/07 11:46:07;;;;;;;8.23;5.40;;;15.20;30.20;;;;;;6277832;22;20932;-74
2023/12/07 11:48:36;;;;;;;10.13;6.47;;;15.20;30.50;;;;;;6277498;22;20549;-74
2023/12/07 11:51:04;;;;;;;7.50;4.90;;;15.20;30.00;;;;;;6277698;22;20487;-74
2023/12/07 11:53:33;;;;;;;4.50;3.67;;;15.10;30.10;;;;;;6277523;22;20431;-74
2023/12/07 11:56:01;;;;;;;7.67;5.50;;;14.90;30.80;;;;;;6278300;22;20392;-74
2023/12/07 11:58:31;;;;;;;5.00;4.00;;;14.60;31.30;;;;;;6277426;22;20757;-74
2023/12/07 12:00:59;;;;;;;6.00;3.90;;;14.20;31.00;;;;;;6277748;22;20447;-74
2023/12/07 12:03:27;;;;;;;7.17;4.90;;;13.70;30.40;;;;;;6278021;22;20384;-74
2023/12/07 12:05:56;;;;;;;4.93;3.80;;;13.30;31.70;;;;;;6277331;22;20866;-74
2023/12/07 12:08:24;;;;;;;6.10;4.00;;;12.90;32.80;;;;;;6278107;22;20403;-74
2023/12/07 12:10:53;;;;;;;5.03;3.90;;;12.60;34.00;;;;;;6277671;22;20479;-74
2023/12/07 12:13:20;;;;;;;5.40;4.80;;;12.30;33.80;;;;;;6278188;22;20392;-74
2023/12/07 12:15:47;;;;;;;5.20;3.70;;;12.10;34.40;;;;;;6278161;22;20430;-73
2023/12/07 12:18:16;;;;;;;5.70;3.43;;;12.00;34.70;;;;;;6278075;22;20450;-74
2023/12/07 12:20:45;;;;;;;5.17;4.10;;;11.90;35.50;;;;;;6278017;22;20446;-73
2023/12/07 12:23:13;;;;;;;5.43;4.47;;;11.90;35.30;;;;;;6277980;22;20388;-74
2023/12/07 12:25:41;;;;;;;7.00;5.13;;;12.00;35.90;;;;;;6278043;22;20758;-74
2023/12/07 12:28:09;;;;;;;6.93;4.53;;;12.10;36.20;;;;;;6277951;22;20502;-74
2023/12/07 12:30:37;;;;;;;6.87;5.77;;;12.20;36.30;;;;;;6278074;22;20710;-74
2023/12/07 12:33:04;;;;;;;7.90;6.20;;;12.20;35.50;;;;;;6277518;22;20428;-74
2023/12/07 12:35:31;;;;;;;6.30;5.57;;;12.20;35.70;;;;;;6277165;22;20414;-74
2023/12/07 12:38:19;;;;;;;28.53;13.00;;;12.00;36.70;;;;;;6273702;22;20708;-74
2023/12/07 12:40:53;;;;;;;7.00;5.50;;;11.80;36.70;;;;;;6262561;22;20428;-74
2023/12/07 12:43:21;;;;;;;8.40;6.40;;;11.70;37.20;;;;;;6274010;22;20447;-74
2023/12/07 12:45:48;;;;;;;6.30;5.10;;;11.60;37.00;;;;;;6275278;22;20477;-73
2023/12/07 12:48:15;;;;;;;6.63;5.13;;;11.40;36.70;;;;;;6274999;22;20872;-75